Ana Sayfa
METAR-TAF:

METAR-TAF

Havaalanları :

Tijuana, Meksika

Enlem: 32-33N, Boylam: 116-58W, yükseklik: 152 m

Güncel hava durumu gözlemi

Rapor saat 06:40 UTC de 35 dakika önce yapıldı.
Rüzgar doğu/kuzeydoğudan 3 kt
Sıcaklık 12°C
Nem 100%
Basınç 1023 hPa
Görüş mesafesi: 8.0 km
Açık gökyüzü

METAR: MMTJ 280640Z 06003KT 5SM SKC 12/12 A3021 RMK BR

Saat: 23:15 (07:15 UTC)

Tahmin

Rapor saat 05:16 UTC de 1 saat ve 59 dakika önce yapıldı.
Ayın 28'si saat 06 UTC'den ayın 29'si saat 12 UTC'ye kadar geçerli Tahmin
Rüzgar kuzey/kuzeybatıdan 5 kt
Görüş mesafesi: 9.7 km
Açık gökyüzü
Toz Pusu
Ayın 28'si saat 1600 UTC'den
Rüzgar batı/kuzeybatıdan 10 kt
Görüş mesafesi: 10 km
Açık gökyüzü
Ayın 29'si saat 0200 UTC'den
Rüzgar kuzey/kuzeybatıdan 5 kt
Görüş mesafesi: 9.7 km
Açık gökyüzü
Toz Pusu

TAF: MMTJ 280516Z 2806/2912 33005KT 6SM HZ SKC TX18/2821Z TN11/2812Z FM281600 30010KT P6SM SKC FM290200 33005KT 6SM HZ SKC

4.000'den fazla havaalanı için hava durumu gözlemleri ve tahminleri (METAR ve TAF raporları).

Kullanılabilir istasyonlar harita üzerinde sarı ve kırmızı noktalarla gösterilir.

İstasyonun adını görmek için fareyi noktanın üzerinde gezdirin.

Sonrasında hava gözlem ve tahminlerini görmek için tıklayın.

Haritayı değiştirmek için: yaklaştırmak için siyah artı işaretli yeşil düğmeye ve uzaklaştırmak için de eksi işaretli düğmeye hızla tıklayın; bitişik haritalar için yeşil okları kullanın.


METAR-TAF: